sensor_id;sensor_type;location;lat;lon;timestamp;pressure;altitude;pressure_sealevel;temperature;humidity
59190;BME280;50749;51.636;4.948;2023-04-07T00:00:50;101542.81;;;17.87;50.79
59190;BME280;50749;51.636;4.948;2023-04-07T00:03:19;101537.28;;;17.87;50.59
59190;BME280;50749;51.636;4.948;2023-04-07T00:05:45;101541.13;;;17.86;50.65
59190;BME280;50749;51.636;4.948;2023-04-07T00:08:11;101545.88;;;17.86;50.49
59190;BME280;50749;51.636;4.948;2023-04-07T00:10:37;101543.44;;;17.84;50.51
59190;BME280;50749;51.636;4.948;2023-04-07T00:13:02;101543.44;;;17.84;50.79
59190;BME280;50749;51.636;4.948;2023-04-07T00:15:28;101535.47;;;17.82;50.79
59190;BME280;50749;51.636;4.948;2023-04-07T00:17:54;101548.16;;;17.83;50.83
59190;BME280;50749;51.636;4.948;2023-04-07T00:20:21;101547.34;;;17.83;50.59
59190;BME280;50749;51.636;4.948;2023-04-07T00:22:46;101546.53;;;17.82;50.65
59190;BME280;50749;51.636;4.948;2023-04-07T00:25:12;101556.81;;;17.82;50.74
59190;BME280;50749;51.636;4.948;2023-04-07T00:27:38;101542.16;;;17.81;50.99
59190;BME280;50749;51.636;4.948;2023-04-07T00:30:05;101554.38;;;17.80;50.74
59190;BME280;50749;51.636;4.948;2023-04-07T00:32:31;101547.22;;;17.79;50.85
59190;BME280;50749;51.636;4.948;2023-04-07T00:34:57;101555.53;;;17.79;50.98
59190;BME280;50749;51.636;4.948;2023-04-07T00:37:22;101554.72;;;17.79;50.55
59190;BME280;50749;51.636;4.948;2023-04-07T00:39:50;101559.41;;;17.78;50.61
59190;BME280;50749;51.636;4.948;2023-04-07T00:42:17;101557.81;;;17.77;50.96
59190;BME280;50749;51.636;4.948;2023-04-07T00:44:43;101557.81;;;17.77;51.07
59190;BME280;50749;51.636;4.948;2023-04-07T00:47:09;101554.59;;;17.75;50.97
59190;BME280;50749;51.636;4.948;2023-04-07T00:49:38;101555.41;;;17.76;50.82
59190;BME280;50749;51.636;4.948;2023-04-07T00:52:04;101559.28;;;17.75;51.01
59190;BME280;50749;51.636;4.948;2023-04-07T00:54:31;101554.59;;;17.75;50.75
59190;BME280;50749;51.636;4.948;2023-04-07T00:56:57;101552.97;;;17.74;50.39
59190;BME280;50749;51.636;4.948;2023-04-07T00:59:24;101554.94;;;17.74;50.63
59190;BME280;50749;51.636;4.948;2023-04-07T01:02:34;101551.34;;;17.73;50.90
59190;BME280;50749;51.636;4.948;2023-04-07T01:05:23;101552.50;;;17.72;50.76
59190;BME280;50749;51.636;4.948;2023-04-07T01:10:43;101546.97;;;17.72;50.66
59190;BME280;50749;51.636;4.948;2023-04-07T01:15:49;101550.41;;;17.69;50.63
59190;BME280;50749;51.636;4.948;2023-04-07T01:18:21;101544.88;;;17.69;50.63
59190;BME280;50749;51.636;4.948;2023-04-07T01:20:50;101550.41;;;17.69;50.45
59190;BME280;50749;51.636;4.948;2023-04-07T01:23:24;101552.38;;;17.69;50.70
59190;BME280;50749;51.636;4.948;2023-04-07T01:26:05;101555.94;;;17.69;50.60
59190;BME280;50749;51.636;4.948;2023-04-07T01:28:48;101557.06;;;17.68;50.45
59190;BME280;50749;51.636;4.948;2023-04-07T01:31:21;101552.72;;;17.67;50.86
59190;BME280;50749;51.636;4.948;2023-04-07T01:33:48;101551.88;;;17.67;50.52
59190;BME280;50749;51.636;4.948;2023-04-07T01:36:15;101544.75;;;17.66;51.00
59190;BME280;50749;51.636;4.948;2023-04-07T01:38:42;101556.94;;;17.64;50.81
59190;BME280;50749;51.636;4.948;2023-04-07T01:41:09;101556.94;;;17.64;50.66
59190;BME280;50749;51.636;4.948;2023-04-07T01:43:36;101560.06;;;17.63;50.60
59190;BME280;50749;51.636;4.948;2023-04-07T01:46:04;101565.59;;;17.63;50.82
59190;BME280;50749;51.636;4.948;2023-04-07T01:48:30;101568.34;;;17.63;50.55
59190;BME280;50749;51.636;4.948;2023-04-07T01:50:56;101569.50;;;17.62;50.69
59190;BME280;50749;51.636;4.948;2023-04-07T01:53:22;101572.63;;;17.60;51.05
59190;BME280;50749;51.636;4.948;2023-04-07T01:55:48;101567.88;;;17.61;50.78
59190;BME280;50749;51.636;4.948;2023-04-07T01:58:14;101571.78;;;17.60;51.00
59190;BME280;50749;51.636;4.948;2023-04-07T02:00:40;101574.56;;;17.60;50.69
59190;BME280;50749;51.636;4.948;2023-04-07T02:03:11;101577.31;;;17.60;50.98
59190;BME280;50749;51.636;4.948;2023-04-07T02:05:47;101582.03;;;17.59;50.86
59190;BME280;50749;51.636;4.948;2023-04-07T02:08:16;101574.09;;;17.58;50.73
59190;BME280;50749;51.636;4.948;2023-04-07T02:10:46;101570.50;;;17.57;50.69
59190;BME280;50749;51.636;4.948;2023-04-07T02:13:16;101571.31;;;17.58;50.72
59190;BME280;50749;51.636;4.948;2023-04-07T02:15:43;101567.75;;;17.57;51.06
59190;BME280;50749;51.636;4.948;2023-04-07T02:18:12;101581.91;;;17.56;51.04
59190;BME280;50749;51.636;4.948;2023-04-07T02:20:41;101570.84;;;17.56;50.73
59190;BME280;50749;51.636;4.948;2023-04-07T02:23:08;101586.66;;;17.55;50.85
59190;BME280;50749;51.636;4.948;2023-04-07T02:25:35;101585.81;;;17.55;50.58
59190;BME280;50749;51.636;4.948;2023-04-07T02:28:03;101583.03;;;17.55;50.97
59190;BME280;50749;51.636;4.948;2023-04-07T02:30:30;101584.22;;;17.54;50.90
59190;BME280;50749;51.636;4.948;2023-04-07T02:32:56;101581.44;;;17.54;50.49
59190;BME280;50749;51.636;4.948;2023-04-07T02:35:22;101582.59;;;17.53;50.90
59190;BME280;50749;51.636;4.948;2023-04-07T02:37:48;101592.84;;;17.52;50.82
59190;BME280;50749;51.636;4.948;2023-04-07T02:40:14;101582.91;;;17.51;50.78
59190;BME280;50749;51.636;4.948;2023-04-07T02:42:40;101586.50;;;17.52;50.80
59190;BME280;50749;51.636;4.948;2023-04-07T02:45:07;101587.66;;;17.51;51.08
59190;BME280;50749;51.636;4.948;2023-04-07T02:47:34;101595.13;;;17.50;50.52
59190;BME280;50749;51.636;4.948;2023-04-07T02:50:01;101593.50;;;17.49;51.03
59190;BME280;50749;51.636;4.948;2023-04-07T02:52:27;101589.94;;;17.49;50.64
59190;BME280;50749;51.636;4.948;2023-04-07T02:54:53;101598.25;;;17.49;50.65
59190;BME280;50749;51.636;4.948;2023-04-07T02:57:18;101595.47;;;17.49;50.67
59190;BME280;50749;51.636;4.948;2023-04-07T02:59:45;101598.25;;;17.49;51.14
59190;BME280;50749;51.636;4.948;2023-04-07T03:02:10;101592.72;;;17.49;50.73
59190;BME280;50749;51.636;4.948;2023-04-07T03:04:36;101602.13;;;17.48;50.98
59190;BME280;50749;51.636;4.948;2023-04-07T03:07:02;101590.28;;;17.47;51.14
59190;BME280;50749;51.636;4.948;2023-04-07T03:09:28;101593.84;;;17.48;50.98
59190;BME280;50749;51.636;4.948;2023-04-07T03:11:54;101584.75;;;17.47;50.72
59190;BME280;50749;51.636;4.948;2023-04-07T03:14:20;101586.69;;;17.46;51.18
59190;BME280;50749;51.636;4.948;2023-04-07T03:16:46;101583.91;;;17.46;50.74
59190;BME280;50749;51.636;4.948;2023-04-07T03:19:12;101586.69;;;17.46;51.06
59190;BME280;50749;51.636;4.948;2023-04-07T03:21:38;101591.06;;;17.48;50.96
59190;BME280;50749;51.636;4.948;2023-04-07T03:24:05;101587.66;;;17.51;50.84
59190;BME280;50749;51.636;4.948;2023-04-07T03:26:31;101585.81;;;17.55;50.70
59190;BME280;50749;51.636;4.948;2023-04-07T03:28:58;101580.06;;;17.60;50.17
59190;BME280;50749;51.636;4.948;2023-04-07T03:31:23;101576.31;;;17.64;50.07
59190;BME280;50749;51.636;4.948;2023-04-07T03:33:50;101581.28;;;17.71;49.93
59190;BME280;50749;51.636;4.948;2023-04-07T03:36:15;101578.31;;;17.76;49.89
59190;BME280;50749;51.636;4.948;2023-04-07T03:38:46;101584.47;;;17.82;49.90
59190;BME280;50749;51.636;4.948;2023-04-07T03:41:11;101580.69;;;17.87;50.13
59190;BME280;50749;51.636;4.948;2023-04-07T03:43:37;101570.59;;;17.91;49.82
59190;BME280;50749;51.636;4.948;2023-04-07T03:46:03;101574.59;;;17.93;49.88
59190;BME280;50749;51.636;4.948;2023-04-07T03:48:29;101569.53;;;17.95;49.68
59190;BME280;50749;51.636;4.948;2023-04-07T03:50:55;101573.25;;;17.99;49.96
59190;BME280;50749;51.636;4.948;2023-04-07T03:53:21;101570.63;;;18.03;49.89
59190;BME280;50749;51.636;4.948;2023-04-07T03:55:47;101577.44;;;18.06;49.43
59190;BME280;50749;51.636;4.948;2023-04-07T03:58:13;101575.94;;;18.08;49.82
59190;BME280;50749;51.636;4.948;2023-04-07T04:00:38;101578.03;;;18.11;49.88
59190;BME280;50749;51.636;4.948;2023-04-07T04:03:05;101574.91;;;18.13;49.90
59190;BME280;50749;51.636;4.948;2023-04-07T04:05:31;101578.59;;;18.17;49.80
59190;BME280;50749;51.636;4.948;2023-04-07T04:07:57;101577.47;;;18.18;49.54
59190;BME280;50749;51.636;4.948;2023-04-07T04:10:22;101578.72;;;18.20;49.47
59190;BME280;50749;51.636;4.948;2023-04-07T04:12:48;101580.34;;;18.22;49.69
59190;BME280;50749;51.636;4.948;2023-04-07T04:15:14;101580.00;;;18.23;49.66
59190;BME280;50749;51.636;4.948;2023-04-07T04:17:41;101586.00;;;18.25;49.70
59190;BME280;50749;51.636;4.948;2023-04-07T04:20:07;101588.44;;;18.27;49.69
59190;BME280;50749;51.636;4.948;2023-04-07T04:22:34;101580.59;;;18.29;49.84
59190;BME280;50749;51.636;4.948;2023-04-07T04:24:59;101591.78;;;18.32;50.03
59190;BME280;50749;51.636;4.948;2023-04-07T04:27:26;101596.97;;;18.34;49.78
59190;BME280;50749;51.636;4.948;2023-04-07T04:29:52;101588.00;;;18.37;49.70
59190;BME280;50749;51.636;4.948;2023-04-07T04:32:19;101592.06;;;18.40;49.96
59190;BME280;50749;51.636;4.948;2023-04-07T04:34:45;101591.38;;;18.43;50.10
59190;BME280;50749;51.636;4.948;2023-04-07T04:37:11;101588.25;;;18.44;49.66
59190;BME280;50749;51.636;4.948;2023-04-07T04:39:37;101589.53;;;18.47;49.80
59190;BME280;50749;51.636;4.948;2023-04-07T04:42:04;101589.19;;;18.48;49.80
59190;BME280;50749;51.636;4.948;2023-04-07T04:44:29;101591.59;;;18.50;50.35
59190;BME280;50749;51.636;4.948;2023-04-07T04:46:55;101595.50;;;18.49;50.39
59190;BME280;50749;51.636;4.948;2023-04-07T04:49:21;101596.00;;;18.51;50.38
59190;BME280;50749;51.636;4.948;2023-04-07T04:51:47;101600.03;;;18.53;50.69
59190;BME280;50749;51.636;4.948;2023-04-07T04:54:13;101601.31;;;18.56;50.66
59190;BME280;50749;51.636;4.948;2023-04-07T04:56:39;101605.34;;;18.59;50.38
59190;BME280;50749;51.636;4.948;2023-04-07T04:59:05;101604.19;;;18.60;50.28
59190;BME280;50749;51.636;4.948;2023-04-07T05:01:31;101609.41;;;18.61;50.09
59190;BME280;50749;51.636;4.948;2023-04-07T05:03:56;101604.31;;;18.63;50.13
59190;BME280;50749;51.636;4.948;2023-04-07T05:06:22;101607.88;;;18.64;50.03
59190;BME280;50749;51.636;4.948;2023-04-07T05:08:48;101615.06;;;18.65;50.11
59190;BME280;50749;51.636;4.948;2023-04-07T05:11:15;101614.72;;;18.66;50.06
59190;BME280;50749;51.636;4.948;2023-04-07T05:13:41;101615.97;;;18.69;50.12
59190;BME280;50749;51.636;4.948;2023-04-07T05:16:07;101618.72;;;18.69;50.27
59190;BME280;50749;51.636;4.948;2023-04-07T05:18:33;101618.38;;;18.70;49.75
59190;BME280;50749;51.636;4.948;2023-04-07T05:20:59;101618.38;;;18.70;49.92
59190;BME280;50749;51.636;4.948;2023-04-07T05:23:26;101624.72;;;18.71;49.87
59190;BME280;50749;51.636;4.948;2023-04-07T05:25:52;101628.31;;;18.71;49.73
59190;BME280;50749;51.636;4.948;2023-04-07T05:28:18;101623.59;;;18.72;49.62
59190;BME280;50749;51.636;4.948;2023-04-07T05:30:44;101630.75;;;18.73;49.87
59190;BME280;50749;51.636;4.948;2023-04-07T05:33:10;101629.59;;;18.74;49.75
59190;BME280;50749;51.636;4.948;2023-04-07T05:35:36;101631.22;;;18.75;49.85
59190;BME280;50749;51.636;4.948;2023-04-07T05:38:01;101632.34;;;18.74;50.00
59190;BME280;50749;51.636;4.948;2023-04-07T05:40:28;101636.75;;;18.75;49.82
59190;BME280;50749;51.636;4.948;2023-04-07T05:42:55;101640.66;;;18.74;49.54
59190;BME280;50749;51.636;4.948;2023-04-07T05:45:21;101631.56;;;18.73;49.60
59190;BME280;50749;51.636;4.948;2023-04-07T05:47:46;101635.13;;;18.74;49.86
59190;BME280;50749;51.636;4.948;2023-04-07T05:50:17;101639.06;;;18.73;50.17
59190;BME280;50749;51.636;4.948;2023-04-07T05:52:42;101643.09;;;18.75;49.73
59190;BME280;50749;51.636;4.948;2023-04-07T05:55:08;101648.97;;;18.74;49.97
59190;BME280;50749;51.636;4.948;2023-04-07T05:57:35;101657.28;;;18.74;49.40
59190;BME280;50749;51.636;4.948;2023-04-07T06:00:01;101658.47;;;18.73;49.87
59190;BME280;50749;51.636;4.948;2023-04-07T06:02:26;101657.06;;;18.67;50.42
59190;BME280;50749;51.636;4.948;2023-04-07T06:04:53;101661.78;;;18.66;50.10
59190;BME280;50749;51.636;4.948;2023-04-07T06:07:18;101652.88;;;18.61;50.61
59190;BME280;50749;51.636;4.948;2023-04-07T06:09:44;101651.63;;;18.58;50.79
59190;BME280;50749;51.636;4.948;2023-04-07T06:12:10;101659.09;;;18.57;50.84
59190;BME280;50749;51.636;4.948;2023-04-07T06:14:37;101654.72;;;18.56;50.90
59190;BME280;50749;51.636;4.948;2023-04-07T06:17:03;101661.06;;;18.57;50.44
59190;BME280;50749;51.636;4.948;2023-04-07T06:19:29;101666.94;;;18.55;50.90
59190;BME280;50749;51.636;4.948;2023-04-07T06:21:55;101656.69;;;18.56;50.99
59190;BME280;50749;51.636;4.948;2023-04-07T06:24:21;101666.94;;;18.55;50.97
59190;BME280;50749;51.636;4.948;2023-04-07T06:26:51;101663.38;;;18.55;50.93
59190;BME280;50749;51.636;4.948;2023-04-07T06:29:17;101667.63;;;18.52;50.85
59190;BME280;50749;51.636;4.948;2023-04-07T06:31:43;101666.81;;;18.52;51.13
59190;BME280;50749;51.636;4.948;2023-04-07T06:34:09;101671.09;;;18.49;51.24
59190;BME280;50749;51.636;4.948;2023-04-07T06:36:34;101673.38;;;18.47;51.08
59190;BME280;50749;51.636;4.948;2023-04-07T06:39:00;101673.38;;;18.47;51.23
59190;BME280;50749;51.636;4.948;2023-04-07T06:41:26;101670.16;;;18.45;50.95
59190;BME280;50749;51.636;4.948;2023-04-07T06:43:52;101668.53;;;18.44;50.97
59190;BME280;50749;51.636;4.948;2023-04-07T06:46:18;101668.41;;;18.41;50.62
59190;BME280;50749;51.636;4.948;2023-04-07T06:48:45;101675.09;;;18.40;50.99
59190;BME280;50749;51.636;4.948;2023-04-07T06:51:11;101678.53;;;18.36;50.93
59190;BME280;50749;51.636;4.948;2023-04-07T06:53:37;101678.88;;;18.35;51.16
59190;BME280;50749;51.636;4.948;2023-04-07T06:56:10;101687.19;;;18.35;51.68
59190;BME280;50749;51.636;4.948;2023-04-07T06:58:37;101681.19;;;18.33;51.50
59190;BME280;50749;51.636;4.948;2023-04-07T07:01:03;101685.91;;;18.32;51.74
59190;BME280;50749;51.636;4.948;2023-04-07T07:03:30;101687.88;;;18.32;51.74
59190;BME280;50749;51.636;4.948;2023-04-07T07:05:56;101701.69;;;18.32;51.40
59190;BME280;50749;51.636;4.948;2023-04-07T07:08:23;101709.53;;;18.30;51.36
59190;BME280;50749;51.636;4.948;2023-04-07T07:10:49;101705.47;;;18.27;51.85
59190;BME280;50749;51.636;4.948;2023-04-07T07:13:15;101710.22;;;18.27;51.38
59190;BME280;50749;51.636;4.948;2023-04-07T07:15:41;101707.44;;;18.27;51.61
59190;BME280;50749;51.636;4.948;2023-04-07T07:18:07;101708.63;;;18.26;51.66
59190;BME280;50749;51.636;4.948;2023-04-07T07:20:32;101717.25;;;18.24;51.45
59190;BME280;50749;51.636;4.948;2023-04-07T07:22:58;101719.19;;;18.24;51.44
59190;BME280;50749;51.636;4.948;2023-04-07T07:25:24;101716.75;;;18.22;51.43
59190;BME280;50749;51.636;4.948;2023-04-07T07:27:52;101723.47;;;18.21;51.40
59190;BME280;50749;51.636;4.948;2023-04-07T07:30:22;101728.16;;;18.20;51.92
59190;BME280;50749;51.636;4.948;2023-04-07T07:32:49;101727.38;;;18.20;51.34
59190;BME280;50749;51.636;4.948;2023-04-07T07:35:15;101723.00;;;18.19;51.64
59190;BME280;50749;51.636;4.948;2023-04-07T07:37:41;101729.66;;;18.18;51.74
59190;BME280;50749;51.636;4.948;2023-04-07T07:40:09;101731.97;;;18.16;51.39
59190;BME280;50749;51.636;4.948;2023-04-07T07:42:36;101739.09;;;18.17;51.42
59190;BME280;50749;51.636;4.948;2023-04-07T07:45:03;101741.06;;;18.16;51.66
59190;BME280;50749;51.636;4.948;2023-04-07T07:47:29;101748.25;;;18.17;51.43
59190;BME280;50749;51.636;4.948;2023-04-07T07:49:55;101747.75;;;18.15;51.54
59190;BME280;50749;51.636;4.948;2023-04-07T07:52:21;101743.38;;;18.14;51.65
59190;BME280;50749;51.636;4.948;2023-04-07T07:54:47;101749.25;;;18.13;51.46
59190;BME280;50749;51.636;4.948;2023-04-07T07:57:13;101759.97;;;18.14;51.33
59190;BME280;50749;51.636;4.948;2023-04-07T07:59:40;101761.91;;;18.14;51.19
59190;BME280;50749;51.636;4.948;2023-04-07T08:02:06;101759.97;;;18.14;51.65
59190;BME280;50749;51.636;4.948;2023-04-07T08:04:34;101756.38;;;18.14;51.38
59190;BME280;50749;51.636;4.948;2023-04-07T08:07:01;101753.63;;;18.14;50.88
59190;BME280;50749;51.636;4.948;2023-04-07T08:09:27;101754.91;;;18.16;50.08
59190;BME280;50749;51.636;4.948;2023-04-07T08:11:53;101765.19;;;18.16;50.09
59190;BME280;50749;51.636;4.948;2023-04-07T08:14:19;101769.88;;;18.15;50.14
59190;BME280;50749;51.636;4.948;2023-04-07T08:16:45;101765.84;;;18.13;50.54
59190;BME280;50749;51.636;4.948;2023-04-07T08:19:11;101777.59;;;18.10;50.38
59190;BME280;50749;51.636;4.948;2023-04-07T08:21:38;101769.63;;;18.08;50.70
59190;BME280;50749;51.636;4.948;2023-04-07T08:24:05;101766.38;;;18.06;50.50
59190;BME280;50749;51.636;4.948;2023-04-07T08:26:31;101777.44;;;18.06;50.65
59190;BME280;50749;51.636;4.948;2023-04-07T08:28:57;101783.00;;;18.06;51.14
59190;BME280;50749;51.636;4.948;2023-04-07T08:31:23;101778.59;;;18.05;51.11
59190;BME280;50749;51.636;4.948;2023-04-07T08:33:49;101779.75;;;18.04;51.33
59190;BME280;50749;51.636;4.948;2023-04-07T08:36:19;101785.28;;;18.04;51.31
59190;BME280;50749;51.636;4.948;2023-04-07T08:38:45;101777.00;;;18.04;51.47
59190;BME280;50749;51.636;4.948;2023-04-07T08:41:13;101785.28;;;18.04;51.75
59190;BME280;50749;51.636;4.948;2023-04-07T08:43:43;101786.88;;;18.05;51.43
59190;BME280;50749;51.636;4.948;2023-04-07T08:46:10;101779.75;;;18.04;51.46
59190;BME280;50749;51.636;4.948;2023-04-07T08:48:37;101794.06;;;18.06;51.25
59190;BME280;50749;51.636;4.948;2023-04-07T08:51:04;101791.63;;;18.05;51.45
59190;BME280;50749;51.636;4.948;2023-04-07T08:53:43;101802.69;;;18.05;51.18
59190;BME280;50749;51.636;4.948;2023-04-07T08:56:16;101802.69;;;18.05;51.13
59190;BME280;50749;51.636;4.948;2023-04-07T08:58:43;101804.66;;;18.04;51.07
59190;BME280;50749;51.636;4.948;2023-04-07T09:01:10;101795.53;;;18.04;51.41
59190;BME280;50749;51.636;4.948;2023-04-07T09:03:37;101796.34;;;18.04;51.16
59190;BME280;50749;51.636;4.948;2023-04-07T09:06:04;101807.44;;;18.04;51.10
59190;BME280;50749;51.636;4.948;2023-04-07T09:08:29;101810.19;;;18.04;51.15
59190;BME280;50749;51.636;4.948;2023-04-07T09:10:56;101807.44;;;18.04;51.18
59190;BME280;50749;51.636;4.948;2023-04-07T09:13:23;101809.03;;;18.05;50.88
59190;BME280;50749;51.636;4.948;2023-04-07T09:15:49;101816.19;;;18.06;51.30
59190;BME280;50749;51.636;4.948;2023-04-07T09:18:16;101811.47;;;18.07;51.18
59190;BME280;50749;51.636;4.948;2023-04-07T09:20:59;101811.47;;;18.07;50.73
59190;BME280;50749;51.636;4.948;2023-04-07T09:23:36;101813.09;;;18.08;50.99
59190;BME280;50749;51.636;4.948;2023-04-07T09:26:18;101813.09;;;18.08;51.00
59190;BME280;50749;51.636;4.948;2023-04-07T09:28:47;101817.81;;;18.07;50.92
59190;BME280;50749;51.636;4.948;2023-04-07T09:31:13;101829.69;;;18.08;50.91
59190;BME280;50749;51.636;4.948;2023-04-07T09:33:39;101828.91;;;18.07;50.81
59190;BME280;50749;51.636;4.948;2023-04-07T09:36:05;101817.81;;;18.07;50.88
59190;BME280;50749;51.636;4.948;2023-04-07T09:38:37;101827.25;;;18.06;51.08
59190;BME280;50749;51.636;4.948;2023-04-07T09:41:14;101824.50;;;18.06;50.81
59190;BME280;50749;51.636;4.948;2023-04-07T09:43:43;101824.81;;;18.05;50.96
59190;BME280;50749;51.636;4.948;2023-04-07T09:46:11;101816.84;;;18.03;50.58
59190;BME280;50749;51.636;4.948;2023-04-07T09:48:37;101825.97;;;18.04;50.98
59190;BME280;50749;51.636;4.948;2023-04-07T09:51:05;101823.19;;;18.04;50.94
59190;BME280;50749;51.636;4.948;2023-04-07T09:53:50;101825.16;;;18.03;50.62
59190;BME280;50749;51.636;4.948;2023-04-07T09:56:18;101832.66;;;18.03;51.01
59190;BME280;50749;51.636;4.948;2023-04-07T09:58:48;101831.03;;;18.01;51.00
59190;BME280;50749;51.636;4.948;2023-04-07T10:01:16;101839.31;;;18.01;50.87
59190;BME280;50749;51.636;4.948;2023-04-07T10:03:43;101833.00;;;18.01;50.70
59190;BME280;50749;51.636;4.948;2023-04-07T10:06:09;101834.97;;;18.00;51.04
59190;BME280;50749;51.636;4.948;2023-04-07T10:08:37;101838.53;;;18.01;50.74
59190;BME280;50749;51.636;4.948;2023-04-07T10:11:04;101834.13;;;18.00;50.92
59190;BME280;50749;51.636;4.948;2023-04-07T10:13:35;101836.09;;;17.99;50.91
59190;BME280;50749;51.636;4.948;2023-04-07T10:16:03;101839.66;;;18.00;50.99
59190;BME280;50749;51.636;4.948;2023-04-07T10:18:32;101838.06;;;17.99;50.87
59190;BME280;50749;51.636;4.948;2023-04-07T10:21:03;101838.06;;;17.99;50.73
59190;BME280;50749;51.636;4.948;2023-04-07T10:26:26;101845.84;;;17.97;50.96
59190;BME280;50749;51.636;4.948;2023-04-07T10:28:59;101848.63;;;17.97;50.76
59190;BME280;50749;51.636;4.948;2023-04-07T10:31:27;101852.06;;;17.94;50.62
59190;BME280;50749;51.636;4.948;2023-04-07T10:33:53;101845.72;;;17.93;50.79
59190;BME280;50749;51.636;4.948;2023-04-07T10:36:21;101845.72;;;17.93;51.02
59190;BME280;50749;51.636;4.948;2023-04-07T10:41:39;101844.09;;;17.92;50.65
59190;BME280;50749;51.636;4.948;2023-04-07T10:44:07;101850.44;;;17.93;50.82
59190;BME280;50749;51.636;4.948;2023-04-07T10:49:14;101864.59;;;17.91;50.90
59190;BME280;50749;51.636;4.948;2023-04-07T10:51:43;101859.88;;;17.92;50.59
59190;BME280;50749;51.636;4.948;2023-04-07T10:54:15;101859.88;;;17.92;50.85
59190;BME280;50749;51.636;4.948;2023-04-07T10:59:30;101865.41;;;17.92;50.90
59190;BME280;50749;51.636;4.948;2023-04-07T11:04:45;101863.47;;;17.92;51.20
59190;BME280;50749;51.636;4.948;2023-04-07T11:07:14;101861.03;;;17.91;51.12
59190;BME280;50749;51.636;4.948;2023-04-07T11:09:44;101867.03;;;17.93;51.45
59190;BME280;50749;51.636;4.948;2023-04-07T11:12:22;101873.53;;;17.97;51.52
59190;BME280;50749;51.636;4.948;2023-04-07T11:14:48;101869.94;;;17.96;51.29
59190;BME280;50749;51.636;4.948;2023-04-07T11:17:14;101866.06;;;17.97;51.62
59190;BME280;50749;51.636;4.948;2023-04-07T11:19:52;101866.84;;;17.98;51.49
59190;BME280;50749;51.636;4.948;2023-04-07T11:22:18;101870.41;;;17.98;51.86
59190;BME280;50749;51.636;4.948;2023-04-07T11:24:46;101877.59;;;17.99;51.27
59190;BME280;50749;51.636;4.948;2023-04-07T11:27:13;101872.84;;;18.00;51.76
59190;BME280;50749;51.636;4.948;2023-04-07T11:29:39;101872.84;;;18.00;51.43
59190;BME280;50749;51.636;4.948;2023-04-07T11:32:05;101871.06;;;18.04;51.24
59190;BME280;50749;51.636;4.948;2023-04-07T11:34:33;101875.75;;;18.04;51.50
59190;BME280;50749;51.636;4.948;2023-04-07T11:37:22;101876.59;;;18.04;51.27
59190;BME280;50749;51.636;4.948;2023-04-07T11:39:55;101869.44;;;18.03;51.20
59190;BME280;50749;51.636;4.948;2023-04-07T11:42:36;101873.84;;;18.04;51.18
59190;BME280;50749;51.636;4.948;2023-04-07T11:45:02;101880.16;;;18.05;51.22
59190;BME280;50749;51.636;4.948;2023-04-07T11:47:35;101884.06;;;18.04;51.27
59190;BME280;50749;51.636;4.948;2023-04-07T11:50:01;101879.38;;;18.04;51.17
59190;BME280;50749;51.636;4.948;2023-04-07T11:52:28;101883.25;;;18.03;51.30
59190;BME280;50749;51.636;4.948;2023-04-07T11:54:53;101881.28;;;18.04;51.05
59190;BME280;50749;51.636;4.948;2023-04-07T11:57:27;101880.81;;;18.01;51.21
59190;BME280;50749;51.636;4.948;2023-04-07T12:00:12;101898.22;;;18.02;51.20
59190;BME280;50749;51.636;4.948;2023-04-07T12:02:39;101890.28;;;18.00;51.25
59190;BME280;50749;51.636;4.948;2023-04-07T12:05:05;101893.84;;;18.01;51.30
59190;BME280;50749;51.636;4.948;2023-04-07T12:07:31;101903.28;;;18.00;50.81
59190;BME280;50749;51.636;4.948;2023-04-07T12:09:57;101896.16;;;17.99;50.98
59190;BME280;50749;51.636;4.948;2023-04-07T12:12:27;101898.91;;;17.99;51.29
59190;BME280;50749;51.636;4.948;2023-04-07T12:14:54;101907.22;;;17.99;51.07
59190;BME280;50749;51.636;4.948;2023-04-07T12:17:26;101902.81;;;17.98;51.28
59190;BME280;50749;51.636;4.948;2023-04-07T12:19:52;101902.03;;;17.97;50.98
59190;BME280;50749;51.636;4.948;2023-04-07T12:22:19;101911.78;;;17.95;51.18
59190;BME280;50749;51.636;4.948;2023-04-07T12:24:44;101907.41;;;17.94;51.01
59190;BME280;50749;51.636;4.948;2023-04-07T12:27:10;101906.91;;;17.92;51.18
59190;BME280;50749;51.636;4.948;2023-04-07T12:29:36;101907.41;;;17.94;51.02
59190;BME280;50749;51.636;4.948;2023-04-07T12:32:03;101916.03;;;17.92;50.79
59190;BME280;50749;51.636;4.948;2023-04-07T12:34:29;101915.22;;;17.92;51.00
59190;BME280;50749;51.636;4.948;2023-04-07T12:36:55;101920.75;;;17.92;51.10
59190;BME280;50749;51.636;4.948;2023-04-07T12:39:21;101921.06;;;17.90;50.85
59190;BME280;50749;51.636;4.948;2023-04-07T12:41:47;101916.69;;;17.89;51.31
59190;BME280;50749;51.636;4.948;2023-04-07T12:44:15;101916.69;;;17.89;51.18
59190;BME280;50749;51.636;4.948;2023-04-07T12:46:41;101926.13;;;17.88;51.26
59190;BME280;50749;51.636;4.948;2023-04-07T12:49:07;101923.38;;;17.88;51.19
59190;BME280;50749;51.636;4.948;2023-04-07T12:51:33;101928.91;;;17.88;50.92
59190;BME280;50749;51.636;4.948;2023-04-07T12:53:59;101925.31;;;17.88;51.02
59190;BME280;50749;51.636;4.948;2023-04-07T12:56:26;101917.03;;;17.88;50.83
59190;BME280;50749;51.636;4.948;2023-04-07T12:58:55;101923.69;;;17.87;50.85
59190;BME280;50749;51.636;4.948;2023-04-07T13:01:21;101915.38;;;17.87;50.84
59190;BME280;50749;51.636;4.948;2023-04-07T13:03:46;101927.59;;;17.86;51.07
59190;BME280;50749;51.636;4.948;2023-04-07T13:06:12;101928.38;;;17.86;50.92
59190;BME280;50749;51.636;4.948;2023-04-07T13:08:39;101927.59;;;17.86;51.08
59190;BME280;50749;51.636;4.948;2023-04-07T13:11:06;101929.53;;;17.85;51.31